Norseman II — WDD6688 — position and weather

sailwx.info

Track history (hours):
 
Tides and Currents Weather Stations Pressure Air Temp Water Temp Dewpoint Dewpoint Depression Visibility Wind Speed Wind Dir Waves Ship Positions

Norseman II

Owner: Norseman Maritime Charters LLC, York, ME. More information available from US FCC via Universal Licensing System and Coast Guard Vessel Documentation Center.

Last reported at 2014-Oct-25 02:33 UTC. Time now 2014-Oct-25 02:43 UTC.
Position N 49°34' W 124°36'.

Length 30 m; draft 4 m.

Type: Passenger vessel. MMSI: 367176270.

Date/timePositionNaut miles runAvg speedWind from/ knotsBaromVisibWave heightAir tempDewpointWater temp
2014-Oct-25 02:33N 49°34' W 124°36'10 9.5
2014-Oct-25 01:31N 49°42' W 124°46'9 8.9
2014-Oct-25 00:33N 49°48' W 124°55'9 8.8
2014-Oct-24 23:33N 49°54' W 125°04'2310.5
2014-Oct-24 21:21N 50°14' W 125°23'63 7.2
2014-Oct-24 12:33N 50°41' W 126°53'10 8.9
2014-Oct-24 11:28N 50°47' W 127°05'8 8.1
2014-Oct-24 10:31N 50°51' W 127°15'8 8.6
2014-Oct-24 09:33N 50°55' W 127°26'9 8.6
2014-Oct-24 08:33N 51°01' W 127°36'9 8.7
2014-Oct-24 07:33N 51°07' W 127°46'25 8.0
2014-Oct-24 04:28N 51°32' W 127°52'  
2014-Oct-21 07:05N 58°12' W 135°25'4 8.2
2014-Oct-21 06:32N 58°14' W 135°32'9 9.0
2014-Oct-21 05:33N 58°19' W 135°47'1111.0
2014-Oct-21 04:34N 58°19' W 136°08'  
2014-Oct-18 22:00N 60°00' W 149°18'   140 / 3991.3 5.4 7.3 9.6
Track history (hours):
 
Tides and Currents Weather Stations Pressure Air Temp Water Temp Dewpoint Dewpoint Depression Visibility Wind Speed Wind Dir Waves Ship Positions

Norseman II

Owner: Norseman Maritime Charters LLC, York, ME. More information available from US FCC via Universal Licensing System and Coast Guard Vessel Documentation Center.

Last reported at 2014-Oct-25 02:33 UTC. Time now 2014-Oct-25 02:43 UTC.
Position N 49°34' W 124°36'.

Length 30 m; draft 4 m.

Type: Passenger vessel. MMSI: 367176270.

Date/timePositionNaut miles runAvg speedWind from/ knotsBaromVisibWave heightAir tempDewpointWater temp
2014-Oct-25 02:33N 49°34' W 124°36'10 9.5
2014-Oct-25 01:31N 49°42' W 124°46'9 8.9
2014-Oct-25 00:33N 49°48' W 124°55'9 8.8
2014-Oct-24 23:33N 49°54' W 125°04'2310.5
2014-Oct-24 21:21N 50°14' W 125°23'63 7.2
2014-Oct-24 12:33N 50°41' W 126°53'10 8.9
2014-Oct-24 11:28N 50°47' W 127°05'8 8.1
2014-Oct-24 10:31N 50°51' W 127°15'8 8.6
2014-Oct-24 09:33N 50°55' W 127°26'9 8.6
2014-Oct-24 08:33N 51°01' W 127°36'9 8.7
2014-Oct-24 07:33N 51°07' W 127°46'25 8.0
2014-Oct-24 04:28N 51°32' W 127°52'  
2014-Oct-21 07:05N 58°12' W 135°25'4 8.2
2014-Oct-21 06:32N 58°14' W 135°32'9 9.0
2014-Oct-21 05:33N 58°19' W 135°47'1111.0
2014-Oct-21 04:34N 58°19' W 136°08'  
2014-Oct-18 22:00N 60°00' W 149°18'   140 / 3991.3 5.4 7.3 9.6

Dump ship's entire track history